createdAt,value
2018-12-30T00:01:25.932Z,4.09
2018-12-30T00:06:33.610Z,4.08
2018-12-30T00:11:41.402Z,4.61
2018-12-30T00:16:49.113Z,4.29
2018-12-30T00:21:56.823Z,4.00
2018-12-30T00:27:04.536Z,3.98
2018-12-30T00:32:12.285Z,4.13
2018-12-30T00:37:19.947Z,4.25
2018-12-30T00:42:27.699Z,4.12
2018-12-30T00:47:35.430Z,4.39
2018-12-30T00:52:43.196Z,4.65
2018-12-30T00:57:50.852Z,3.76
2018-12-30T01:02:58.655Z,3.73
2018-12-30T01:08:06.350Z,4.20
2018-12-30T01:13:14.096Z,4.20
2018-12-30T01:18:21.762Z,3.59
2018-12-30T01:23:29.508Z,3.60
2018-12-30T01:28:37.184Z,3.69
2018-12-30T01:33:44.955Z,3.69
2018-12-30T01:38:52.729Z,3.40
2018-12-30T01:44:00.561Z,4.16
2018-12-30T01:49:08.281Z,3.82
2018-12-30T01:54:16.050Z,3.64
2018-12-30T01:59:23.728Z,3.59
2018-12-30T02:04:31.529Z,3.74
2018-12-30T02:09:39.275Z,3.80
2018-12-30T02:14:47.039Z,3.79
2018-12-30T02:19:54.807Z,4.33
2018-12-30T02:25:02.590Z,4.15
2018-12-30T02:30:10.297Z,3.79
2018-12-30T02:35:18.108Z,3.55
2018-12-30T02:40:25.871Z,3.83
2018-12-30T02:45:33.642Z,3.78
2018-12-30T02:50:41.360Z,4.01
2018-12-30T02:55:49.050Z,3.84
2018-12-30T03:00:56.736Z,3.92
2018-12-30T03:06:04.483Z,3.66
2018-12-30T03:11:12.207Z,3.92
2018-12-30T03:16:19.993Z,3.92
2018-12-30T03:21:27.685Z,4.21
2018-12-30T03:26:35.430Z,3.75
2018-12-30T03:31:43.239Z,3.98
2018-12-30T03:36:50.940Z,3.33
2018-12-30T03:41:58.657Z,4.05
2018-12-30T03:47:06.380Z,3.78
2018-12-30T03:52:14.151Z,4.27
2018-12-30T03:57:21.876Z,3.53
2018-12-30T04:02:29.555Z,3.50
2018-12-30T04:07:37.293Z,3.47
2018-12-30T04:12:45.007Z,3.74
2018-12-30T04:17:52.765Z,3.65
2018-12-30T04:23:00.473Z,3.71
2018-12-30T04:28:08.281Z,4.37
2018-12-30T04:33:16.012Z,4.16
2018-12-30T04:38:23.813Z,4.25
2018-12-30T04:43:31.576Z,4.21
2018-12-30T04:48:39.386Z,4.27
2018-12-30T04:53:47.047Z,4.18
2018-12-30T04:58:54.869Z,4.49
2018-12-30T05:04:02.565Z,4.65
2018-12-30T05:09:10.340Z,4.72
2018-12-30T05:14:18.029Z,4.70
2018-12-30T05:19:25.875Z,4.50
2018-12-30T05:24:33.601Z,4.23
2018-12-30T05:29:41.436Z,4.35
2018-12-30T05:34:49.101Z,4.78
2018-12-30T05:39:56.828Z,3.89
2018-12-30T05:45:04.466Z,4.47
2018-12-30T05:50:12.269Z,4.31
2018-12-30T05:55:19.946Z,3.97
2018-12-30T06:00:27.697Z,4.07
2018-12-30T06:05:35.412Z,4.48
2018-12-30T06:10:43.153Z,5.20
2018-12-30T06:15:50.821Z,4.69
2018-12-30T06:20:58.602Z,4.65
2018-12-30T06:26:06.331Z,4.38
2018-12-30T06:31:14.129Z,5.15
2018-12-30T06:36:21.836Z,4.23
2018-12-30T06:41:29.597Z,4.17
2018-12-30T06:46:37.299Z,4.75
2018-12-30T06:51:45.117Z,4.50
2018-12-30T06:56:52.849Z,4.37
2018-12-30T07:02:00.604Z,4.97
2018-12-30T07:07:08.316Z,5.09
2018-12-30T07:12:16.097Z,5.18
2018-12-30T07:17:23.818Z,5.09
2018-12-30T07:22:31.582Z,4.87
2018-12-30T07:27:39.257Z,5.12
2018-12-30T07:32:47.053Z,5.19
2018-12-30T07:37:54.771Z,5.32
2018-12-30T07:43:02.595Z,5.64
2018-12-30T07:48:10.266Z,4.81
2018-12-30T07:53:17.982Z,4.49
2018-12-30T07:58:25.723Z,4.00
2018-12-30T08:03:33.491Z,4.06
2018-12-30T08:08:41.185Z,4.65
2018-12-30T08:13:49.051Z,4.28
2018-12-30T08:18:56.724Z,4.44
2018-12-30T08:24:04.495Z,3.97
2018-12-30T08:29:12.176Z,4.12
2018-12-30T08:34:19.968Z,3.92
2018-12-30T08:39:27.713Z,3.67
2018-12-30T08:44:35.504Z,4.06
2018-12-30T08:49:43.233Z,3.77
2018-12-30T08:54:51.010Z,3.48
2018-12-30T08:59:58.705Z,3.74
2018-12-30T09:05:06.444Z,3.42
2018-12-30T09:10:14.154Z,3.37
2018-12-30T09:15:21.937Z,3.43
2018-12-30T09:20:29.582Z,3.42
2018-12-30T09:25:37.367Z,3.60
2018-12-30T09:30:45.135Z,3.64
2018-12-30T09:35:52.889Z,3.96
2018-12-30T09:41:00.638Z,4.12
2018-12-30T09:46:08.374Z,4.12
2018-12-30T09:51:16.083Z,4.17
2018-12-30T09:56:23.878Z,3.58
2018-12-30T10:01:31.591Z,3.51
2018-12-30T10:06:39.340Z,3.66
2018-12-30T10:11:47.071Z,4.29
2018-12-30T10:16:54.827Z,4.01
2018-12-30T10:22:02.576Z,3.66
2018-12-30T10:27:10.417Z,3.95
2018-12-30T10:32:18.129Z,3.39
2018-12-30T10:37:25.886Z,3.03
2018-12-30T10:42:33.598Z,3.15
2018-12-30T10:47:41.449Z,3.69
2018-12-30T10:52:49.109Z,4.60
2018-12-30T10:57:56.854Z,4.11
2018-12-30T11:03:04.571Z,4.70
2018-12-30T11:08:12.237Z,4.57
2018-12-30T11:13:19.937Z,4.30
2018-12-30T11:18:27.742Z,3.99
2018-12-30T11:23:35.445Z,3.44
2018-12-30T11:28:43.287Z,3.75
2018-12-30T11:33:51.037Z,3.47
2018-12-30T11:38:58.788Z,3.11
2018-12-30T11:44:06.499Z,3.35
2018-12-30T11:49:14.366Z,3.58
2018-12-30T11:54:22.039Z,3.28
2018-12-30T11:59:29.847Z,3.17
2018-12-30T12:04:37.584Z,3.83
2018-12-30T12:09:45.321Z,3.61
2018-12-30T12:14:53.025Z,3.51
2018-12-30T12:20:00.866Z,3.33
2018-12-30T12:25:08.533Z,3.57
2018-12-30T12:30:16.382Z,3.19
2018-12-30T12:35:24.024Z,3.84
2018-12-30T12:40:31.786Z,3.78
2018-12-30T12:45:39.493Z,3.80
2018-12-30T12:50:47.299Z,3.71
2018-12-30T12:55:55.015Z,3.67
2018-12-30T13:01:02.743Z,3.85
2018-12-30T13:06:10.473Z,3.99
2018-12-30T13:11:18.216Z,3.91
2018-12-30T13:16:25.952Z,4.26
2018-12-30T13:21:33.752Z,4.57
2018-12-30T13:26:41.444Z,4.49
2018-12-30T13:31:49.122Z,4.65
2018-12-30T13:36:56.869Z,4.16
2018-12-30T13:42:04.588Z,4.21
2018-12-30T13:47:12.343Z,4.01
2018-12-30T13:52:20.065Z,4.39
2018-12-30T13:57:27.827Z,4.38
2018-12-30T14:02:35.525Z,4.32
2018-12-30T14:07:43.313Z,4.08
2018-12-30T14:12:50.997Z,4.24
2018-12-30T14:17:58.751Z,4.65
2018-12-30T14:23:06.444Z,4.50
2018-12-30T14:28:14.193Z,4.52
2018-12-30T14:33:21.904Z,4.16
2018-12-30T14:38:29.740Z,4.19
2018-12-30T14:43:37.405Z,4.59
2018-12-30T14:48:45.151Z,4.85
2018-12-30T14:53:52.804Z,5.87
2018-12-30T14:59:00.551Z,5.43
2018-12-30T15:04:08.269Z,5.45
2018-12-30T15:09:16.061Z,5.00
2018-12-30T15:14:23.753Z,4.96
2018-12-30T15:19:31.523Z,5.41
2018-12-30T15:24:39.234Z,5.07
2018-12-30T15:29:46.956Z,5.10
2018-12-30T15:34:54.674Z,5.63
2018-12-30T15:40:02.435Z,5.21
2018-12-30T15:45:10.119Z,5.20
2018-12-30T15:50:17.873Z,5.60
2018-12-30T15:55:25.585Z,5.58
2018-12-30T16:00:33.320Z,5.33
2018-12-30T16:05:40.963Z,5.26
2018-12-30T16:10:48.773Z,5.95
2018-12-30T16:15:56.474Z,6.61
2018-12-30T16:21:04.201Z,6.05
2018-12-30T16:26:11.866Z,6.54
2018-12-30T16:31:19.603Z,6.82
2018-12-30T16:36:27.300Z,9.36
2018-12-30T16:41:35.110Z,8.68
2018-12-30T16:46:42.786Z,8.81
2018-12-30T16:51:50.517Z,9.92
2018-12-30T16:56:58.235Z,10.20
2018-12-30T17:02:06.003Z,10.74
2018-12-30T17:07:13.695Z,11.89
2018-12-30T17:12:21.432Z,12.90
2018-12-30T17:17:29.108Z,13.05
2018-12-30T17:22:36.915Z,13.93
2018-12-30T17:27:44.591Z,13.84
2018-12-30T17:32:52.413Z,15.30
2018-12-30T17:38:00.095Z,15.64
2018-12-30T17:43:07.890Z,15.41
2018-12-30T17:48:15.568Z,16.41
2018-12-30T17:53:23.283Z,16.85
2018-12-30T17:58:30.974Z,17.94
2018-12-30T18:03:38.765Z,19.60
2018-12-30T18:08:46.488Z,19.05
2018-12-30T18:13:54.272Z,20.29
2018-12-30T18:19:01.994Z,20.29
2018-12-30T18:24:09.711Z,27.70
2018-12-30T18:29:17.411Z,21.69
2018-12-30T18:34:25.196Z,21.97
2018-12-30T18:39:32.926Z,21.77
2018-12-30T18:44:41.852Z,20.13
2018-12-30T18:49:47.983Z,20.20
2018-12-30T18:54:55.767Z,21.03
2018-12-30T19:00:03.435Z,21.34
2018-12-30T19:05:11.172Z,21.81
2018-12-30T19:10:18.915Z,21.73
2018-12-30T19:15:26.639Z,21.45
2018-12-30T19:20:35.868Z,22.54
2018-12-30T19:25:41.626Z,23.24
2018-12-30T19:30:49.319Z,24.03
2018-12-30T19:35:57.110Z,25.52
2018-12-30T19:41:04.797Z,26.17
2018-12-30T19:46:12.561Z,26.79
2018-12-30T19:51:20.274Z,26.82
2018-12-30T19:56:28.017Z,26.01
2018-12-30T20:01:35.696Z,25.56
2018-12-30T20:06:43.448Z,26.32
2018-12-30T20:11:51.131Z,25.95
2018-12-30T20:16:58.841Z,26.14
2018-12-30T20:22:06.499Z,25.57
2018-12-30T20:27:14.283Z,24.94
2018-12-30T20:32:21.995Z,22.70
2018-12-30T20:37:29.795Z,21.43
2018-12-30T20:42:37.475Z,20.65
2018-12-30T20:47:45.199Z,19.43
2018-12-30T20:52:52.841Z,19.52
2018-12-30T20:58:00.659Z,19.03
2018-12-30T21:03:08.347Z,18.49
2018-12-30T21:08:16.146Z,17.57
2018-12-30T21:13:23.895Z,16.89
2018-12-30T21:18:31.647Z,16.65
2018-12-30T21:23:39.346Z,17.09
2018-12-30T21:28:47.099Z,17.92
2018-12-30T21:33:54.795Z,18.13
2018-12-30T21:39:02.555Z,18.22
2018-12-30T21:44:10.248Z,25.74
2018-12-30T21:49:18.063Z,19.50
2018-12-30T21:54:25.711Z,19.63
2018-12-30T21:59:33.483Z,19.48
2018-12-30T22:04:41.131Z,20.37
2018-12-30T22:09:48.851Z,20.65
2018-12-30T22:14:56.513Z,19.75
2018-12-30T22:20:04.325Z,19.75
2018-12-30T22:25:12.010Z,19.01
2018-12-30T22:30:19.760Z,18.63
2018-12-30T22:35:27.502Z,19.61
2018-12-30T22:40:35.252Z,20.54
2018-12-30T22:45:42.979Z,21.25
2018-12-30T22:50:50.809Z,23.06
2018-12-30T22:55:58.471Z,23.84
2018-12-30T23:01:06.203Z,25.80
2018-12-30T23:06:13.874Z,26.45
2018-12-30T23:11:21.623Z,27.26
2018-12-30T23:16:29.800Z,28.42
2018-12-30T23:21:37.603Z,25.65
2018-12-30T23:26:45.277Z,23.01
2018-12-30T23:31:53.040Z,20.94
2018-12-30T23:37:00.719Z,21.11
2018-12-30T23:42:08.478Z,21.79
2018-12-30T23:47:16.197Z,31.89
2018-12-30T23:52:23.983Z,36.04
2018-12-30T23:57:31.717Z,40.82
